sensor_id;sensor_type;location;lat;lon;timestamp;temperature;humidity
14378;DHT22;7272;53.668;9.578;2022-09-16T00:02:44;13.00;99.90
14378;DHT22;7272;53.668;9.578;2022-09-16T00:05:49;13.00;99.90
14378;DHT22;7272;53.668;9.578;2022-09-16T00:08:53;13.00;99.90
14378;DHT22;7272;53.668;9.578;2022-09-16T00:11:55;13.10;99.90
14378;DHT22;7272;53.668;9.578;2022-09-16T00:14:57;13.10;99.90
14378;DHT22;7272;53.668;9.578;2022-09-16T00:17:59;13.10;99.90
14378;DHT22;7272;53.668;9.578;2022-09-16T00:21:01;13.00;99.90
14378;DHT22;7272;53.668;9.578;2022-09-16T00:24:10;13.00;99.90
14378;DHT22;7272;53.668;9.578;2022-09-16T00:27:13;13.00;99.90
14378;DHT22;7272;53.668;9.578;2022-09-16T00:30:15;12.90;99.90
14378;DHT22;7272;53.668;9.578;2022-09-16T00:33:18;12.90;99.90
14378;DHT22;7272;53.668;9.578;2022-09-16T00:36:20;12.90;99.90
14378;DHT22;7272;53.668;9.578;2022-09-16T00:39:24;12.90;99.90
14378;DHT22;7272;53.668;9.578;2022-09-16T00:42:25;12.90;99.90
14378;DHT22;7272;53.668;9.578;2022-09-16T00:45:27;12.90;99.90
14378;DHT22;7272;53.668;9.578;2022-09-16T00:48:31;12.90;99.90
14378;DHT22;7272;53.668;9.578;2022-09-16T00:51:34;12.90;99.90
14378;DHT22;7272;53.668;9.578;2022-09-16T00:54:39;12.90;99.90
14378;DHT22;7272;53.668;9.578;2022-09-16T00:57:42;12.90;99.90
14378;DHT22;7272;53.668;9.578;2022-09-16T01:00:45;12.90;99.90
14378;DHT22;7272;53.668;9.578;2022-09-16T01:03:49;12.90;99.90
14378;DHT22;7272;53.668;9.578;2022-09-16T01:06:52;12.90;99.90
14378;DHT22;7272;53.668;9.578;2022-09-16T01:09:56;12.90;99.90
14378;DHT22;7272;53.668;9.578;2022-09-16T01:13:01;12.80;99.90
14378;DHT22;7272;53.668;9.578;2022-09-16T01:16:07;12.80;99.90
14378;DHT22;7272;53.668;9.578;2022-09-16T01:19:23;12.80;99.90
14378;DHT22;7272;53.668;9.578;2022-09-16T01:22:40;13.00;99.90
14378;DHT22;7272;53.668;9.578;2022-09-16T01:26:02;13.00;99.90
14378;DHT22;7272;53.668;9.578;2022-09-16T01:29:40;12.90;99.90
14378;DHT22;7272;53.668;9.578;2022-09-16T01:32:57;12.80;99.90
14378;DHT22;7272;53.668;9.578;2022-09-16T01:36:23;12.80;99.90
14378;DHT22;7272;53.668;9.578;2022-09-16T01:39:29;12.70;99.90
14378;DHT22;7272;53.668;9.578;2022-09-16T01:42:38;12.70;99.90
14378;DHT22;7272;53.668;9.578;2022-09-16T01:45:43;12.90;99.90
14378;DHT22;7272;53.668;9.578;2022-09-16T01:48:54;13.00;99.90
14378;DHT22;7272;53.668;9.578;2022-09-16T01:52:05;12.90;99.90
14378;DHT22;7272;53.668;9.578;2022-09-16T01:55:09;12.90;99.90
14378;DHT22;7272;53.668;9.578;2022-09-16T01:58:19;12.80;99.90
14378;DHT22;7272;53.668;9.578;2022-09-16T02:01:25;12.80;99.90
14378;DHT22;7272;53.668;9.578;2022-09-16T02:04:36;12.70;99.90
14378;DHT22;7272;53.668;9.578;2022-09-16T02:07:44;12.70;99.90
14378;DHT22;7272;53.668;9.578;2022-09-16T02:10:50;12.60;99.90
14378;DHT22;7272;53.668;9.578;2022-09-16T02:13:56;12.70;99.90
14378;DHT22;7272;53.668;9.578;2022-09-16T02:17:02;12.90;99.90
14378;DHT22;7272;53.668;9.578;2022-09-16T02:20:10;12.90;99.90
14378;DHT22;7272;53.668;9.578;2022-09-16T02:23:15;12.90;99.90
14378;DHT22;7272;53.668;9.578;2022-09-16T02:26:22;12.80;99.90
14378;DHT22;7272;53.668;9.578;2022-09-16T02:29:29;12.80;99.90
14378;DHT22;7272;53.668;9.578;2022-09-16T02:32:34;12.70;99.90
14378;DHT22;7272;53.668;9.578;2022-09-16T02:35:40;12.70;99.90
14378;DHT22;7272;53.668;9.578;2022-09-16T02:38:46;12.70;99.90
14378;DHT22;7272;53.668;9.578;2022-09-16T02:41:49;12.70;99.90
14378;DHT22;7272;53.668;9.578;2022-09-16T02:44:51;12.80;99.90
14378;DHT22;7272;53.668;9.578;2022-09-16T02:47:58;12.80;99.90
14378;DHT22;7272;53.668;9.578;2022-09-16T02:51:12;12.80;99.90
14378;DHT22;7272;53.668;9.578;2022-09-16T02:54:20;12.70;99.90
14378;DHT22;7272;53.668;9.578;2022-09-16T02:57:24;12.70;99.90
14378;DHT22;7272;53.668;9.578;2022-09-16T03:00:27;12.60;99.90
14378;DHT22;7272;53.668;9.578;2022-09-16T03:03:30;12.60;99.90
14378;DHT22;7272;53.668;9.578;2022-09-16T03:06:33;12.50;99.90
14378;DHT22;7272;53.668;9.578;2022-09-16T03:09:38;12.50;99.90
14378;DHT22;7272;53.668;9.578;2022-09-16T03:12:49;12.50;99.90
14378;DHT22;7272;53.668;9.578;2022-09-16T03:16:01;12.50;99.90
14378;DHT22;7272;53.668;9.578;2022-09-16T03:19:13;12.50;99.90
14378;DHT22;7272;53.668;9.578;2022-09-16T03:22:29;12.50;99.90
14378;DHT22;7272;53.668;9.578;2022-09-16T03:25:42;12.50;99.90
14378;DHT22;7272;53.668;9.578;2022-09-16T03:28:49;12.50;99.90
14378;DHT22;7272;53.668;9.578;2022-09-16T03:31:58;12.50;99.90
14378;DHT22;7272;53.668;9.578;2022-09-16T03:35:06;12.50;99.90
14378;DHT22;7272;53.668;9.578;2022-09-16T03:38:11;12.60;99.90
14378;DHT22;7272;53.668;9.578;2022-09-16T03:41:14;12.60;99.90
14378;DHT22;7272;53.668;9.578;2022-09-16T03:44:17;12.60;99.90
14378;DHT22;7272;53.668;9.578;2022-09-16T03:47:19;12.60;99.90
14378;DHT22;7272;53.668;9.578;2022-09-16T03:50:21;12.50;99.90
14378;DHT22;7272;53.668;9.578;2022-09-16T03:53:24;12.50;99.90
14378;DHT22;7272;53.668;9.578;2022-09-16T03:56:26;12.50;99.90
14378;DHT22;7272;53.668;9.578;2022-09-16T03:59:28;12.40;99.90
14378;DHT22;7272;53.668;9.578;2022-09-16T04:02:30;12.50;99.90
14378;DHT22;7272;53.668;9.578;2022-09-16T04:05:32;12.40;99.90
14378;DHT22;7272;53.668;9.578;2022-09-16T04:08:35;12.40;99.90
14378;DHT22;7272;53.668;9.578;2022-09-16T04:11:39;12.40;99.90
14378;DHT22;7272;53.668;9.578;2022-09-16T04:14:41;12.30;99.90
14378;DHT22;7272;53.668;9.578;2022-09-16T04:17:43;12.30;99.90
14378;DHT22;7272;53.668;9.578;2022-09-16T04:20:45;12.50;99.90
14378;DHT22;7272;53.668;9.578;2022-09-16T04:23:48;12.50;99.90
14378;DHT22;7272;53.668;9.578;2022-09-16T04:26:50;12.40;99.90
14378;DHT22;7272;53.668;9.578;2022-09-16T04:29:53;12.30;99.90
14378;DHT22;7272;53.668;9.578;2022-09-16T04:32:55;12.30;99.90
14378;DHT22;7272;53.668;9.578;2022-09-16T04:36:02;12.30;99.90
14378;DHT22;7272;53.668;9.578;2022-09-16T04:39:05;12.30;99.90
14378;DHT22;7272;53.668;9.578;2022-09-16T04:42:07;12.30;99.90
14378;DHT22;7272;53.668;9.578;2022-09-16T04:45:11;12.30;99.90
14378;DHT22;7272;53.668;9.578;2022-09-16T04:48:14;12.30;99.90
14378;DHT22;7272;53.668;9.578;2022-09-16T04:51:18;12.30;99.90
14378;DHT22;7272;53.668;9.578;2022-09-16T04:54:23;12.20;99.90
14378;DHT22;7272;53.668;9.578;2022-09-16T04:57:25;12.30;99.90
14378;DHT22;7272;53.668;9.578;2022-09-16T05:00:30;12.30;99.90
14378;DHT22;7272;53.668;9.578;2022-09-16T05:03:32;12.30;99.90
14378;DHT22;7272;53.668;9.578;2022-09-16T05:06:35;12.30;99.90
14378;DHT22;7272;53.668;9.578;2022-09-16T05:09:39;12.20;99.90
14378;DHT22;7272;53.668;9.578;2022-09-16T05:12:41;12.20;99.90
14378;DHT22;7272;53.668;9.578;2022-09-16T05:15:42;12.30;99.90
14378;DHT22;7272;53.668;9.578;2022-09-16T05:18:46;12.20;99.90
14378;DHT22;7272;53.668;9.578;2022-09-16T05:21:48;12.30;99.90
14378;DHT22;7272;53.668;9.578;2022-09-16T05:24:51;12.30;99.90
14378;DHT22;7272;53.668;9.578;2022-09-16T05:27:53;12.20;99.90
14378;DHT22;7272;53.668;9.578;2022-09-16T05:30:55;12.20;99.90
14378;DHT22;7272;53.668;9.578;2022-09-16T05:33:58;12.20;99.90
14378;DHT22;7272;53.668;9.578;2022-09-16T05:37:00;12.20;99.90
14378;DHT22;7272;53.668;9.578;2022-09-16T05:40:04;12.20;99.90
14378;DHT22;7272;53.668;9.578;2022-09-16T05:43:06;12.20;99.90
14378;DHT22;7272;53.668;9.578;2022-09-16T05:46:12;12.30;99.90
14378;DHT22;7272;53.668;9.578;2022-09-16T05:49:17;12.30;99.90
14378;DHT22;7272;53.668;9.578;2022-09-16T05:52:20;12.40;99.90
14378;DHT22;7272;53.668;9.578;2022-09-16T05:55:23;12.50;99.90
14378;DHT22;7272;53.668;9.578;2022-09-16T05:58:27;12.40;99.90
14378;DHT22;7272;53.668;9.578;2022-09-16T06:01:30;12.40;99.90
14378;DHT22;7272;53.668;9.578;2022-09-16T06:04:33;12.40;99.90
14378;DHT22;7272;53.668;9.578;2022-09-16T06:07:35;12.40;99.90
14378;DHT22;7272;53.668;9.578;2022-09-16T06:10:39;12.50;99.90
14378;DHT22;7272;53.668;9.578;2022-09-16T06:13:41;12.50;99.90
14378;DHT22;7272;53.668;9.578;2022-09-16T06:16:44;12.50;99.90
14378;DHT22;7272;53.668;9.578;2022-09-16T06:19:46;12.60;99.90
14378;DHT22;7272;53.668;9.578;2022-09-16T06:22:48;12.70;99.90
14378;DHT22;7272;53.668;9.578;2022-09-16T06:25:59;12.70;99.90
14378;DHT22;7272;53.668;9.578;2022-09-16T06:29:02;12.80;99.90
14378;DHT22;7272;53.668;9.578;2022-09-16T06:32:05;12.80;99.90
14378;DHT22;7272;53.668;9.578;2022-09-16T06:35:07;12.80;99.90
14378;DHT22;7272;53.668;9.578;2022-09-16T06:38:09;12.80;99.90
14378;DHT22;7272;53.668;9.578;2022-09-16T06:41:14;12.90;99.90
14378;DHT22;7272;53.668;9.578;2022-09-16T06:44:16;12.90;99.90
14378;DHT22;7272;53.668;9.578;2022-09-16T06:47:18;12.90;99.90
14378;DHT22;7272;53.668;9.578;2022-09-16T06:50:20;12.90;99.90
14378;DHT22;7272;53.668;9.578;2022-09-16T06:53:21;12.90;99.90
14378;DHT22;7272;53.668;9.578;2022-09-16T06:56:25;13.00;99.90
14378;DHT22;7272;53.668;9.578;2022-09-16T06:59:27;13.00;99.90
14378;DHT22;7272;53.668;9.578;2022-09-16T07:02:28;13.10;99.90
14378;DHT22;7272;53.668;9.578;2022-09-16T07:05:31;13.20;99.90
14378;DHT22;7272;53.668;9.578;2022-09-16T07:08:35;13.20;99.90
14378;DHT22;7272;53.668;9.578;2022-09-16T07:11:38;13.20;99.90
14378;DHT22;7272;53.668;9.578;2022-09-16T07:14:41;13.30;99.90
14378;DHT22;7272;53.668;9.578;2022-09-16T07:17:43;13.40;99.90
14378;DHT22;7272;53.668;9.578;2022-09-16T07:20:45;13.60;99.90
14378;DHT22;7272;53.668;9.578;2022-09-16T07:23:47;13.60;99.90
14378;DHT22;7272;53.668;9.578;2022-09-16T07:26:50;13.70;99.90
14378;DHT22;7272;53.668;9.578;2022-09-16T07:29:52;13.90;99.90
14378;DHT22;7272;53.668;9.578;2022-09-16T07:32:56;14.00;99.90
14378;DHT22;7272;53.668;9.578;2022-09-16T07:35:58;14.10;99.90
14378;DHT22;7272;53.668;9.578;2022-09-16T07:39:01;14.50;99.90
14378;DHT22;7272;53.668;9.578;2022-09-16T07:42:04;14.60;99.90
14378;DHT22;7272;53.668;9.578;2022-09-16T07:45:07;14.30;99.90
14378;DHT22;7272;53.668;9.578;2022-09-16T07:48:09;14.00;99.90
14378;DHT22;7272;53.668;9.578;2022-09-16T07:51:13;14.00;99.90
14378;DHT22;7272;53.668;9.578;2022-09-16T07:54:16;14.10;99.90
14378;DHT22;7272;53.668;9.578;2022-09-16T07:57:20;14.50;99.90
14378;DHT22;7272;53.668;9.578;2022-09-16T08:00:22;14.90;99.90
14378;DHT22;7272;53.668;9.578;2022-09-16T08:03:26;15.10;99.90
14378;DHT22;7272;53.668;9.578;2022-09-16T08:06:29;15.20;99.90
14378;DHT22;7272;53.668;9.578;2022-09-16T08:09:31;15.30;99.90
14378;DHT22;7272;53.668;9.578;2022-09-16T08:12:35;15.40;99.90
14378;DHT22;7272;53.668;9.578;2022-09-16T08:15:37;15.30;99.90
14378;DHT22;7272;53.668;9.578;2022-09-16T08:18:39;15.30;99.90
14378;DHT22;7272;53.668;9.578;2022-09-16T08:21:41;15.30;99.90
14378;DHT22;7272;53.668;9.578;2022-09-16T08:24:43;15.10;99.90
14378;DHT22;7272;53.668;9.578;2022-09-16T08:27:46;15.00;99.90
14378;DHT22;7272;53.668;9.578;2022-09-16T08:30:48;15.00;99.90
14378;DHT22;7272;53.668;9.578;2022-09-16T08:33:51;15.00;99.90
14378;DHT22;7272;53.668;9.578;2022-09-16T08:36:53;14.80;99.90
14378;DHT22;7272;53.668;9.578;2022-09-16T08:39:54;14.80;99.90
14378;DHT22;7272;53.668;9.578;2022-09-16T08:43:03;14.80;99.90
14378;DHT22;7272;53.668;9.578;2022-09-16T08:46:17;15.00;99.90
14378;DHT22;7272;53.668;9.578;2022-09-16T08:49:27;15.30;99.90
14378;DHT22;7272;53.668;9.578;2022-09-16T08:52:32;15.50;99.90
14378;DHT22;7272;53.668;9.578;2022-09-16T08:55:39;15.70;99.90
14378;DHT22;7272;53.668;9.578;2022-09-16T08:58:45;15.80;99.90
14378;DHT22;7272;53.668;9.578;2022-09-16T09:01:49;15.90;99.90
14378;DHT22;7272;53.668;9.578;2022-09-16T09:04:53;15.90;99.90
14378;DHT22;7272;53.668;9.578;2022-09-16T09:08:12;15.90;99.90
14378;DHT22;7272;53.668;9.578;2022-09-16T09:11:22;15.90;99.90
14378;DHT22;7272;53.668;9.578;2022-09-16T09:14:41;16.00;99.90
14378;DHT22;7272;53.668;9.578;2022-09-16T09:17:54;16.10;99.90
14378;DHT22;7272;53.668;9.578;2022-09-16T09:21:12;16.30;99.90
14378;DHT22;7272;53.668;9.578;2022-09-16T09:24:30;16.50;99.90
14378;DHT22;7272;53.668;9.578;2022-09-16T09:27:46;16.60;99.90
14378;DHT22;7272;53.668;9.578;2022-09-16T09:30:57;17.00;99.90
14378;DHT22;7272;53.668;9.578;2022-09-16T09:34:09;17.30;99.90
14378;DHT22;7272;53.668;9.578;2022-09-16T09:37:26;17.30;99.90
14378;DHT22;7272;53.668;9.578;2022-09-16T09:40:33;17.20;99.90
14378;DHT22;7272;53.668;9.578;2022-09-16T09:43:42;17.30;99.90
14378;DHT22;7272;53.668;9.578;2022-09-16T09:46:52;17.40;99.90
14378;DHT22;7272;53.668;9.578;2022-09-16T09:49:56;17.40;99.90
14378;DHT22;7272;53.668;9.578;2022-09-16T09:53:07;17.20;99.90
14378;DHT22;7272;53.668;9.578;2022-09-16T09:56:16;17.30;99.90
14378;DHT22;7272;53.668;9.578;2022-09-16T09:59:25;17.40;99.90
14378;DHT22;7272;53.668;9.578;2022-09-16T10:02:29;17.60;99.90
14378;DHT22;7272;53.668;9.578;2022-09-16T10:05:31;17.70;99.90
14378;DHT22;7272;53.668;9.578;2022-09-16T10:08:40;17.70;99.90
14378;DHT22;7272;53.668;9.578;2022-09-16T10:11:47;17.80;99.90
14378;DHT22;7272;53.668;9.578;2022-09-16T10:14:50;17.50;99.90
14378;DHT22;7272;53.668;9.578;2022-09-16T10:17:54;17.40;99.90
14378;DHT22;7272;53.668;9.578;2022-09-16T10:21:01;17.30;99.90
14378;DHT22;7272;53.668;9.578;2022-09-16T10:24:04;17.00;99.90
14378;DHT22;7272;53.668;9.578;2022-09-16T10:27:18;16.90;99.90
14378;DHT22;7272;53.668;9.578;2022-09-16T10:30:21;17.30;99.90
14378;DHT22;7272;53.668;9.578;2022-09-16T10:33:27;17.40;99.90
14378;DHT22;7272;53.668;9.578;2022-09-16T10:36:32;17.30;99.90
14378;DHT22;7272;53.668;9.578;2022-09-16T10:39:34;17.30;99.90
14378;DHT22;7272;53.668;9.578;2022-09-16T10:42:37;17.70;99.90
14378;DHT22;7272;53.668;9.578;2022-09-16T10:45:44;17.80;99.90
14378;DHT22;7272;53.668;9.578;2022-09-16T10:48:49;18.00;99.90
14378;DHT22;7272;53.668;9.578;2022-09-16T10:51:53;17.80;99.90
14378;DHT22;7272;53.668;9.578;2022-09-16T10:54:56;17.50;99.90
14378;DHT22;7272;53.668;9.578;2022-09-16T10:58:08;16.90;99.90
14378;DHT22;7272;53.668;9.578;2022-09-16T11:01:25;16.40;99.90
14378;DHT22;7272;53.668;9.578;2022-09-16T11:04:54;16.20;99.90
14378;DHT22;7272;53.668;9.578;2022-09-16T11:08:09;16.60;99.90
14378;DHT22;7272;53.668;9.578;2022-09-16T11:11:16;16.90;99.90
14378;DHT22;7272;53.668;9.578;2022-09-16T11:14:31;17.00;99.90
14378;DHT22;7272;53.668;9.578;2022-09-16T11:17:46;17.10;99.90
14378;DHT22;7272;53.668;9.578;2022-09-16T11:21:06;16.90;99.90
14378;DHT22;7272;53.668;9.578;2022-09-16T11:24:32;16.70;99.90
14378;DHT22;7272;53.668;9.578;2022-09-16T11:27:42;16.80;99.90
14378;DHT22;7272;53.668;9.578;2022-09-16T11:30:50;17.00;99.90
14378;DHT22;7272;53.668;9.578;2022-09-16T11:33:58;17.40;99.90
14378;DHT22;7272;53.668;9.578;2022-09-16T11:37:09;17.80;99.90
14378;DHT22;7272;53.668;9.578;2022-09-16T11:40:25;18.00;99.90
14378;DHT22;7272;53.668;9.578;2022-09-16T11:47:24;17.80;99.90
14378;DHT22;7272;53.668;9.578;2022-09-16T11:50:38;17.60;99.90
14378;DHT22;7272;53.668;9.578;2022-09-16T11:53:57;17.40;99.90
14378;DHT22;7272;53.668;9.578;2022-09-16T11:57:07;17.00;99.90
14378;DHT22;7272;53.668;9.578;2022-09-16T12:00:13;16.10;99.90
14378;DHT22;7272;53.668;9.578;2022-09-16T12:03:22;15.70;99.90
14378;DHT22;7272;53.668;9.578;2022-09-16T12:06:29;15.60;99.90
14378;DHT22;7272;53.668;9.578;2022-09-16T12:09:41;15.60;99.90
14378;DHT22;7272;53.668;9.578;2022-09-16T12:12:49;15.80;99.90
14378;DHT22;7272;53.668;9.578;2022-09-16T12:15:54;16.00;99.90
14378;DHT22;7272;53.668;9.578;2022-09-16T12:19:02;16.00;99.90
14378;DHT22;7272;53.668;9.578;2022-09-16T12:22:07;16.00;99.90
14378;DHT22;7272;53.668;9.578;2022-09-16T12:25:15;16.20;99.90
14378;DHT22;7272;53.668;9.578;2022-09-16T12:28:24;16.20;99.90
14378;DHT22;7272;53.668;9.578;2022-09-16T12:31:31;16.00;99.90
14378;DHT22;7272;53.668;9.578;2022-09-16T12:34:38;15.90;99.90
14378;DHT22;7272;53.668;9.578;2022-09-16T12:37:46;15.60;99.90
14378;DHT22;7272;53.668;9.578;2022-09-16T12:41:06;15.10;99.90
14378;DHT22;7272;53.668;9.578;2022-09-16T12:48:00;14.70;99.90
14378;DHT22;7272;53.668;9.578;2022-09-16T12:51:21;14.60;99.90
14378;DHT22;7272;53.668;9.578;2022-09-16T12:54:43;14.70;99.90
14378;DHT22;7272;53.668;9.578;2022-09-16T12:58:05;14.80;99.90
14378;DHT22;7272;53.668;9.578;2022-09-16T13:01:17;14.70;99.90
14378;DHT22;7272;53.668;9.578;2022-09-16T13:04:23;14.70;99.90
14378;DHT22;7272;53.668;9.578;2022-09-16T13:07:32;14.60;99.90
14378;DHT22;7272;53.668;9.578;2022-09-16T13:10:37;14.50;99.90
14378;DHT22;7272;53.668;9.578;2022-09-16T13:13:45;14.40;99.90
14378;DHT22;7272;53.668;9.578;2022-09-16T13:16:52;14.40;99.90
14378;DHT22;7272;53.668;9.578;2022-09-16T13:20:00;14.40;99.90
14378;DHT22;7272;53.668;9.578;2022-09-16T13:23:07;14.20;99.90
14378;DHT22;7272;53.668;9.578;2022-09-16T13:26:12;14.10;99.90
14378;DHT22;7272;53.668;9.578;2022-09-16T13:29:30;14.00;99.90
14378;DHT22;7272;53.668;9.578;2022-09-16T13:32:42;13.90;99.90
14378;DHT22;7272;53.668;9.578;2022-09-16T13:35:46;13.80;99.90
14378;DHT22;7272;53.668;9.578;2022-09-16T13:38:50;13.70;99.90
14378;DHT22;7272;53.668;9.578;2022-09-16T13:41:52;13.60;99.90
14378;DHT22;7272;53.668;9.578;2022-09-16T13:44:56;13.60;99.90
14378;DHT22;7272;53.668;9.578;2022-09-16T13:47:59;13.50;99.90
14378;DHT22;7272;53.668;9.578;2022-09-16T13:51:09;13.50;99.90
14378;DHT22;7272;53.668;9.578;2022-09-16T13:54:28;13.50;99.90
14378;DHT22;7272;53.668;9.578;2022-09-16T13:57:43;13.40;99.90
14378;DHT22;7272;53.668;9.578;2022-09-16T14:00:56;13.30;99.90
14378;DHT22;7272;53.668;9.578;2022-09-16T14:04:07;13.30;99.90
14378;DHT22;7272;53.668;9.578;2022-09-16T14:07:21;13.30;99.90
14378;DHT22;7272;53.668;9.578;2022-09-16T14:10:33;13.50;99.90
14378;DHT22;7272;53.668;9.578;2022-09-16T14:13:38;13.40;99.90
14378;DHT22;7272;53.668;9.578;2022-09-16T14:16:44;13.30;99.90
14378;DHT22;7272;53.668;9.578;2022-09-16T14:19:48;13.30;99.90
14378;DHT22;7272;53.668;9.578;2022-09-16T14:23:04;13.30;99.90
14378;DHT22;7272;53.668;9.578;2022-09-16T14:26:10;13.30;99.90
14378;DHT22;7272;53.668;9.578;2022-09-16T14:29:13;13.30;99.90
14378;DHT22;7272;53.668;9.578;2022-09-16T14:32:16;13.30;99.90
14378;DHT22;7272;53.668;9.578;2022-09-16T14:35:20;13.30;99.90
14378;DHT22;7272;53.668;9.578;2022-09-16T14:38:30;13.30;99.90
14378;DHT22;7272;53.668;9.578;2022-09-16T14:41:36;13.40;99.90
14378;DHT22;7272;53.668;9.578;2022-09-16T14:44:40;13.40;99.90
14378;DHT22;7272;53.668;9.578;2022-09-16T14:47:44;13.40;99.90
14378;DHT22;7272;53.668;9.578;2022-09-16T14:50:49;13.40;99.90
14378;DHT22;7272;53.668;9.578;2022-09-16T14:53:56;13.50;99.90
14378;DHT22;7272;53.668;9.578;2022-09-16T14:56:59;13.60;99.90
14378;DHT22;7272;53.668;9.578;2022-09-16T15:00:04;13.70;99.90
14378;DHT22;7272;53.668;9.578;2022-09-16T15:03:13;13.70;99.90
14378;DHT22;7272;53.668;9.578;2022-09-16T15:06:19;13.70;99.90
14378;DHT22;7272;53.668;9.578;2022-09-16T15:09:25;13.70;99.90
14378;DHT22;7272;53.668;9.578;2022-09-16T15:12:30;13.80;99.90
14378;DHT22;7272;53.668;9.578;2022-09-16T15:15:34;13.90;99.90
14378;DHT22;7272;53.668;9.578;2022-09-16T15:18:41;14.00;99.90
14378;DHT22;7272;53.668;9.578;2022-09-16T15:21:44;14.10;99.90
14378;DHT22;7272;53.668;9.578;2022-09-16T15:24:50;14.40;99.90
14378;DHT22;7272;53.668;9.578;2022-09-16T15:28:03;14.40;99.90
14378;DHT22;7272;53.668;9.578;2022-09-16T15:31:05;14.50;99.90
14378;DHT22;7272;53.668;9.578;2022-09-16T15:34:21;14.60;99.90
14378;DHT22;7272;53.668;9.578;2022-09-16T15:37:32;14.70;99.90
14378;DHT22;7272;53.668;9.578;2022-09-16T15:40:34;14.70;99.90
14378;DHT22;7272;53.668;9.578;2022-09-16T15:43:37;14.80;99.90
14378;DHT22;7272;53.668;9.578;2022-09-16T15:46:44;14.90;99.90
14378;DHT22;7272;53.668;9.578;2022-09-16T15:49:49;15.10;99.90
14378;DHT22;7272;53.668;9.578;2022-09-16T15:52:56;15.20;99.90
14378;DHT22;7272;53.668;9.578;2022-09-16T15:56:02;15.20;99.90
14378;DHT22;7272;53.668;9.578;2022-09-16T15:59:24;15.20;99.90
14378;DHT22;7272;53.668;9.578;2022-09-16T16:02:32;15.20;99.90
14378;DHT22;7272;53.668;9.578;2022-09-16T16:05:36;15.20;99.90
14378;DHT22;7272;53.668;9.578;2022-09-16T16:08:51;15.30;99.90
14378;DHT22;7272;53.668;9.578;2022-09-16T16:11:54;15.30;99.90
14378;DHT22;7272;53.668;9.578;2022-09-16T16:14:56;15.40;99.90
14378;DHT22;7272;53.668;9.578;2022-09-16T16:18:00;15.50;99.90
14378;DHT22;7272;53.668;9.578;2022-09-16T16:21:06;15.50;99.90
14378;DHT22;7272;53.668;9.578;2022-09-16T16:24:09;15.50;99.90
14378;DHT22;7272;53.668;9.578;2022-09-16T16:27:11;15.50;99.90
14378;DHT22;7272;53.668;9.578;2022-09-16T16:30:12;15.50;99.90
14378;DHT22;7272;53.668;9.578;2022-09-16T16:33:14;15.50;99.90
14378;DHT22;7272;53.668;9.578;2022-09-16T16:36:18;15.40;99.90
14378;DHT22;7272;53.668;9.578;2022-09-16T16:39:21;15.40;99.90
14378;DHT22;7272;53.668;9.578;2022-09-16T16:42:24;15.40;99.90
14378;DHT22;7272;53.668;9.578;2022-09-16T16:45:28;15.50;99.90
14378;DHT22;7272;53.668;9.578;2022-09-16T16:48:30;15.50;99.90
14378;DHT22;7272;53.668;9.578;2022-09-16T16:51:34;15.40;99.90
14378;DHT22;7272;53.668;9.578;2022-09-16T16:54:36;15.40;99.90
14378;DHT22;7272;53.668;9.578;2022-09-16T16:57:37;15.30;99.90
14378;DHT22;7272;53.668;9.578;2022-09-16T17:00:39;15.30;99.90
14378;DHT22;7272;53.668;9.578;2022-09-16T17:03:42;15.20;99.90
14378;DHT22;7272;53.668;9.578;2022-09-16T17:06:47;15.20;99.90
14378;DHT22;7272;53.668;9.578;2022-09-16T17:09:49;15.10;99.90
14378;DHT22;7272;53.668;9.578;2022-09-16T17:12:50;15.10;99.90
14378;DHT22;7272;53.668;9.578;2022-09-16T17:15:52;15.10;99.90
14378;DHT22;7272;53.668;9.578;2022-09-16T17:18:56;15.10;99.90
14378;DHT22;7272;53.668;9.578;2022-09-16T17:21:59;15.10;99.90
14378;DHT22;7272;53.668;9.578;2022-09-16T17:25:02;15.10;99.90
14378;DHT22;7272;53.668;9.578;2022-09-16T17:28:03;15.10;99.90
14378;DHT22;7272;53.668;9.578;2022-09-16T17:31:10;15.10;99.90
14378;DHT22;7272;53.668;9.578;2022-09-16T17:34:14;15.10;99.90
14378;DHT22;7272;53.668;9.578;2022-09-16T17:37:18;15.20;99.90
14378;DHT22;7272;53.668;9.578;2022-09-16T17:44:30;15.20;99.90
14378;DHT22;7272;53.668;9.578;2022-09-16T17:47:32;15.20;99.90
14378;DHT22;7272;53.668;9.578;2022-09-16T17:50:36;15.20;99.90
14378;DHT22;7272;53.668;9.578;2022-09-16T17:53:39;15.20;99.90
14378;DHT22;7272;53.668;9.578;2022-09-16T17:56:42;15.10;99.90
14378;DHT22;7272;53.668;9.578;2022-09-16T17:59:44;15.10;99.90
14378;DHT22;7272;53.668;9.578;2022-09-16T18:02:46;15.10;99.90
14378;DHT22;7272;53.668;9.578;2022-09-16T18:05:47;15.10;99.90
14378;DHT22;7272;53.668;9.578;2022-09-16T18:08:52;15.00;99.90
14378;DHT22;7272;53.668;9.578;2022-09-16T18:11:54;14.90;99.90
14378;DHT22;7272;53.668;9.578;2022-09-16T18:14:57;14.90;99.90
14378;DHT22;7272;53.668;9.578;2022-09-16T18:17:59;14.90;99.90
14378;DHT22;7272;53.668;9.578;2022-09-16T18:21:03;14.90;99.90
14378;DHT22;7272;53.668;9.578;2022-09-16T18:24:08;15.10;99.90
14378;DHT22;7272;53.668;9.578;2022-09-16T18:27:12;15.20;99.90
14378;DHT22;7272;53.668;9.578;2022-09-16T18:30:14;15.00;99.90
14378;DHT22;7272;53.668;9.578;2022-09-16T18:33:16;14.90;99.90
14378;DHT22;7272;53.668;9.578;2022-09-16T18:36:19;14.80;99.90
14378;DHT22;7272;53.668;9.578;2022-09-16T18:39:26;14.70;99.90
14378;DHT22;7272;53.668;9.578;2022-09-16T18:42:28;14.70;99.90
14378;DHT22;7272;53.668;9.578;2022-09-16T18:45:30;14.60;99.90
14378;DHT22;7272;53.668;9.578;2022-09-16T18:48:32;14.60;99.90
14378;DHT22;7272;53.668;9.578;2022-09-16T18:51:36;14.60;99.90
14378;DHT22;7272;53.668;9.578;2022-09-16T18:54:39;14.50;99.90
14378;DHT22;7272;53.668;9.578;2022-09-16T18:57:43;14.50;99.90
14378;DHT22;7272;53.668;9.578;2022-09-16T19:00:45;14.40;99.90
14378;DHT22;7272;53.668;9.578;2022-09-16T19:03:48;14.40;99.90
14378;DHT22;7272;53.668;9.578;2022-09-16T19:06:52;14.30;99.90
14378;DHT22;7272;53.668;9.578;2022-09-16T19:09:56;14.30;99.90
14378;DHT22;7272;53.668;9.578;2022-09-16T19:12:58;14.30;99.90
14378;DHT22;7272;53.668;9.578;2022-09-16T19:16:01;14.30;99.90
14378;DHT22;7272;53.668;9.578;2022-09-16T19:19:03;14.20;99.90
14378;DHT22;7272;53.668;9.578;2022-09-16T19:22:05;14.20;99.90
14378;DHT22;7272;53.668;9.578;2022-09-16T19:25:09;14.20;99.90
14378;DHT22;7272;53.668;9.578;2022-09-16T19:28:11;14.20;99.90
14378;DHT22;7272;53.668;9.578;2022-09-16T19:31:13;14.20;99.90
14378;DHT22;7272;53.668;9.578;2022-09-16T19:34:16;14.20;99.90
14378;DHT22;7272;53.668;9.578;2022-09-16T19:37:18;14.20;99.90
14378;DHT22;7272;53.668;9.578;2022-09-16T19:40:21;14.20;99.90
14378;DHT22;7272;53.668;9.578;2022-09-16T19:43:23;14.20;99.90
14378;DHT22;7272;53.668;9.578;2022-09-16T19:46:27;14.30;99.90
14378;DHT22;7272;53.668;9.578;2022-09-16T19:49:31;14.30;99.90
14378;DHT22;7272;53.668;9.578;2022-09-16T19:52:33;14.30;99.90
14378;DHT22;7272;53.668;9.578;2022-09-16T19:55:38;14.20;99.90
14378;DHT22;7272;53.668;9.578;2022-09-16T19:58:40;14.20;99.90
14378;DHT22;7272;53.668;9.578;2022-09-16T20:01:42;14.10;99.90
14378;DHT22;7272;53.668;9.578;2022-09-16T20:04:44;14.10;99.90